Time;durP1;ratioP1;P1;durP2;ratioP2;P2;SDS_P1;SDS_P2;PMS_P1;PMS_P2;Temp;Humidity;BMP_temperature;BMP_pressure;BME280_temperature;BME280_humidity;BME280_pressure;Samples;Min_cycle;Max_cycle;Signal;HPM_P1;HPM_P2
2021/12/04 00:00:39;;;;;;;51.85;29.83;;;;;;;16.51;49.91;100074.19;5061416;28;20079;-41
2021/12/04 00:03:06;;;;;;;45.03;27.63;;;;;;;16.50;48.95;100066.34;5054598;28;20572;-41
2021/12/04 00:05:33;;;;;;;54.42;28.42;;;;;;;16.49;49.13;100064.66;5061019;28;20071;-41
2021/12/04 00:08:00;;;;;;;48.97;27.83;;;;;;;16.49;49.48;100053.97;5059140;28;20052;-41
2021/12/04 00:10:29;;;;;;;49.35;27.88;;;;;;;16.47;49.77;100056.78;5064757;28;20152;-40
2021/12/04 00:12:55;;;;;;;44.85;27.25;;;;;;;16.45;48.87;100058.81;5057717;28;20049;-41
2021/12/04 00:15:22;;;;;;;52.50;29.13;;;;;;;16.46;49.20;100054.28;5064146;28;20471;-40
2021/12/04 00:17:49;;;;;;;53.88;28.55;;;;;;;16.46;49.25;100048.94;5059858;28;20376;-40
2021/12/04 00:20:16;;;;;;;44.42;25.75;;;;;;;16.45;49.37;100052.63;5063866;28;20056;-41
2021/12/04 00:22:42;;;;;;;47.60;27.48;;;;;;;16.43;50.18;100044.72;5062284;28;20143;-42
2021/12/04 00:25:09;;;;;;;47.30;27.35;;;;;;;16.41;50.05;100038.72;5068597;28;20090;-40
2021/12/04 00:27:36;;;;;;;49.58;28.48;;;;;;;16.41;50.21;100041.41;5065929;28;20049;-40
2021/12/04 00:30:03;;;;;;;47.53;27.45;;;;;;;16.41;50.26;100040.56;5065015;28;20116;-40
2021/12/04 00:32:35;;;;;;;44.20;26.20;;;;;;;16.40;49.55;100038.88;5060415;28;20072;-40
2021/12/04 00:51:00;;;;;;;45.78;26.02;;;;;;;16.37;50.14;100028.53;5065908;28;20075;-40
2021/12/04 00:53:27;;;;;;;44.75;26.67;;;;;;;16.36;49.99;100026.81;5071821;28;20045;-41
2021/12/04 00:55:53;;;;;;;46.83;27.05;;;;;;;16.36;50.29;100032.16;5062467;28;20078;-41
2021/12/04 00:58:20;;;;;;;48.47;27.35;;;;;;;16.34;50.62;100018.13;5070333;28;20454;-41
2021/12/04 01:00:47;;;;;;;48.40;27.55;;;;;;;16.34;49.96;100024.31;5065769;28;20078;-41
2021/12/04 01:03:14;;;;;;;45.90;26.63;;;;;;;16.33;49.75;100019.97;5062999;28;20132;-41
2021/12/04 01:05:40;;;;;;;47.88;26.50;;;;;;;16.34;50.34;100031.50;5065348;28;20075;-41
2021/12/04 01:08:07;;;;;;;45.20;26.25;;;;;;;16.32;49.91;100031.66;5068766;28;20484;-41
2021/12/04 01:10:35;;;;;;;43.88;25.27;;;;;;;16.31;50.21;100027.31;5065345;28;20055;-41
2021/12/04 01:13:06;;;;;;;44.95;26.55;;;;;;;16.30;49.60;100020.31;5070399;28;20076;-42
2021/12/04 01:15:32;;;;;;;45.10;25.85;;;;;;;16.29;50.00;100011.44;5066508;28;20047;-41
2021/12/04 01:17:59;;;;;;;44.90;26.73;;;;;;;16.28;50.58;100012.44;5065596;28;20451;-41
2021/12/04 01:20:25;;;;;;;47.47;27.13;;;;;;;16.27;49.93;100008.09;5065779;28;20049;-41
2021/12/04 01:22:52;;;;;;;46.22;27.45;;;;;;;16.28;50.64;100009.78;5066552;28;20152;-41
2021/12/04 01:25:19;;;;;;;43.53;25.30;;;;;;;16.28;50.35;100019.59;5067690;28;20458;-41
2021/12/04 01:27:46;;;;;;;45.72;25.15;;;;;;;16.27;51.03;100018.78;5064820;28;20071;-41
2021/12/04 01:30:13;;;;;;;45.30;26.13;;;;;;;16.25;51.13;100010.09;5067528;28;20045;-41
2021/12/04 01:32:40;;;;;;;42.88;24.45;;;;;;;16.25;50.43;100010.09;5063759;28;20045;-41
2021/12/04 01:35:07;;;;;;;39.85;24.45;;;;;;;16.25;50.36;99995.91;5068615;28;20329;-41
2021/12/04 01:37:35;;;;;;;42.85;25.08;;;;;;;16.23;50.03;99990.69;5065449;28;20443;-40
2021/12/04 01:40:04;;;;;;;38.63;23.10;;;;;;;16.23;50.43;99982.66;5067240;28;20048;-41
2021/12/04 01:42:34;;;;;;;41.20;24.25;;;;;;;16.22;50.21;99978.31;5065558;28;20127;-41
2021/12/04 01:45:03;;;;;;;43.20;23.92;;;;;;;16.22;50.15;99977.50;5068660;28;20123;-41
2021/12/04 01:47:30;;;;;;;43.22;24.10;;;;;;;16.22;50.49;99978.31;5063847;28;20139;-41
2021/12/04 01:49:59;;;;;;;39.15;22.13;;;;;;;16.22;50.40;99977.50;5065823;28;20047;-41
2021/12/04 01:52:26;;;;;;;37.30;21.90;;;;;;;16.21;51.22;99975.84;5062787;28;20059;-42
2021/12/04 01:54:55;;;;;;;39.22;23.42;;;;;;;16.20;50.87;99977.66;5067230;28;20094;-42
2021/12/04 01:57:24;;;;;;;38.72;22.83;;;;;;;16.19;51.01;99975.13;5064255;28;20325;-43
2021/12/04 01:59:51;;;;;;;35.33;20.38;;;;;;;16.19;50.13;99975.97;5065388;28;20456;-40
2021/12/04 02:02:18;;;;;;;38.28;21.63;;;;;;;16.19;50.52;99967.94;5063581;28;20151;-40
2021/12/04 02:04:45;;;;;;;35.63;21.42;;;;;;;16.18;51.00;99971.63;5067467;28;20048;-42
2021/12/04 02:07:13;;;;;;;39.13;22.08;;;;;;;16.18;50.65;99971.63;5062428;28;20139;-41
2021/12/04 02:09:39;;;;;;;37.28;21.40;;;;;;;16.17;51.21;99969.97;5067307;28;20048;-41
2021/12/04 02:12:07;;;;;;;36.33;21.30;;;;;;;16.17;51.46;99969.97;5069762;28;20100;-42
2021/12/04 02:14:37;;;;;;;35.25;20.15;;;;;;;16.17;51.41;99969.13;5063452;28;20051;-42
2021/12/04 02:17:05;;;;;;;35.72;20.85;;;;;;;16.16;50.84;99962.97;5066586;28;20131;-42
2021/12/04 02:19:32;;;;;;;34.50;19.50;;;;;;;16.16;50.64;99965.63;5068768;28;20129;-41
2021/12/04 02:21:59;;;;;;;34.40;19.52;;;;;;;16.16;50.85;99967.44;5069715;28;20343;-41
2021/12/04 02:24:26;;;;;;;36.05;20.25;;;;;;;16.15;51.17;99961.25;5064873;28;20048;-42
2021/12/04 02:26:52;;;;;;;33.38;18.98;;;;;;;16.15;51.77;99961.25;5069048;28;20044;-46
2021/12/04 02:29:19;;;;;;;28.67;17.20;;;;;;;16.15;51.02;99961.25;5062437;28;20157;-42
2021/12/04 02:31:52;;;;;;;30.55;18.05;;;;;;;16.14;50.75;99964.09;5064278;28;20122;-41
2021/12/04 02:34:25;;;;;;;34.15;18.75;;;;;;;16.15;50.69;99965.78;5063454;28;20044;-41
2021/12/04 02:36:51;;;;;;;31.03;18.33;;;;;;;16.15;51.47;99958.59;5066643;28;20443;-41
2021/12/04 02:39:33;;;;;;;29.35;18.30;;;;;;;16.14;51.82;99959.59;5064144;28;20966;-42
2021/12/04 02:42:01;;;;;;;33.05;18.27;;;;;;;16.15;51.85;99965.78;5067624;28;20067;-43
2021/12/04 02:44:46;;;;;;;26.60;16.20;;;;;;;16.13;51.90;99955.25;5062562;28;20055;-43
2021/12/04 02:47:13;;;;;;;30.73;17.70;;;;;;;16.14;51.75;99953.41;5065406;28;20044;-43
2021/12/04 02:49:39;;;;;;;29.85;17.02;;;;;;;16.13;50.87;99947.22;5063898;28;20453;-45
2021/12/04 02:52:08;;;;;;;29.48;17.25;;;;;;;16.13;51.49;99944.56;5064049;28;20102;-43
2021/12/04 02:54:35;;;;;;;29.85;17.35;;;;;;;16.13;51.96;99941.88;5064680;28;20051;-41
2021/12/04 02:57:04;;;;;;;29.52;16.30;;;;;;;16.11;51.21;99943.88;5065421;28;20049;-42
2021/12/04 02:59:33;;;;;;;27.20;16.20;;;;;;;16.12;51.24;99948.25;5064343;28;20079;-44
2021/12/04 03:02:00;;;;;;;27.23;15.52;;;;;;;16.11;51.20;99949.22;5059751;28;20132;-42
2021/12/04 03:04:28;;;;;;;25.00;15.25;;;;;;;16.11;51.37;99935.84;5067595;28;20047;-43
2021/12/04 03:06:55;;;;;;;26.88;16.05;;;;;;;16.11;51.67;99945.72;5063463;28;20514;-41
2021/12/04 03:09:22;;;;;;;28.25;15.73;;;;;;;16.10;51.43;99947.56;5066319;28;20134;-41
2021/12/04 03:11:49;;;;;;;24.92;14.75;;;;;;;16.10;51.90;99946.72;5064133;28;20079;-41
2021/12/04 03:14:17;;;;;;;24.60;14.75;;;;;;;16.09;51.76;99940.53;5066430;28;20045;-41
2021/12/04 03:16:43;;;;;;;24.30;14.35;;;;;;;16.09;51.18;99935.19;5063094;28;20057;-41
2021/12/04 03:19:10;;;;;;;25.77;15.23;;;;;;;16.09;52.16;99929.00;5064738;28;20439;-42
2021/12/04 03:21:38;;;;;;;25.05;14.13;;;;;;;16.09;51.85;99929.00;5063972;28;20082;-42
2021/12/04 03:24:08;;;;;;;24.33;14.52;;;;;;;16.08;51.56;99924.66;5066064;28;20418;-42
2021/12/04 03:26:37;;;;;;;24.17;14.30;;;;;;;16.08;51.39;99920.16;5063527;28;20136;-42
2021/12/04 03:29:07;;;;;;;24.90;14.82;;;;;;;16.08;52.07;99920.16;5064117;28;20055;-43
2021/12/04 03:40:05;;;;;;;24.88;14.43;;;;;;;16.07;52.43;99901.59;5061015;28;20044;-42
2021/12/04 03:42:34;;;;;;;21.80;13.48;;;;;;;16.07;52.47;99906.94;5063038;28;20393;-41
2021/12/04 03:45:01;;;;;;;22.77;13.35;;;;;;;16.06;51.92;99903.44;5063578;28;20106;-41
2021/12/04 03:47:29;;;;;;;21.00;12.50;;;;;;;16.06;52.08;99892.75;5065522;28;20053;-42
2021/12/04 03:49:57;;;;;;;21.40;12.73;;;;;;;16.05;51.92;99899.09;5064033;28;20501;-41
2021/12/04 03:52:24;;;;;;;22.67;13.52;;;;;;;16.06;51.56;99895.41;5064776;28;20083;-41
2021/12/04 03:54:50;;;;;;;23.73;13.38;;;;;;;16.05;52.15;99885.75;5062504;28;20052;-40
2021/12/04 03:57:17;;;;;;;22.52;13.88;;;;;;;16.04;51.49;99889.41;5063930;28;20137;-41
2021/12/04 03:59:47;;;;;;;20.13;12.77;;;;;;;16.04;52.20;99889.41;5062093;28;20147;-41
2021/12/04 04:02:16;;;;;;;21.45;12.60;;;;;;;16.03;51.93;99890.41;5068253;28;20044;-41
2021/12/04 04:04:44;;;;;;;22.70;12.93;;;;;;;16.02;52.26;99892.22;5065045;28;20056;-42
2021/12/04 04:07:11;;;;;;;22.35;12.65;;;;;;;16.03;52.36;99893.91;5068979;28;20067;-41
2021/12/04 04:09:38;;;;;;;19.95;11.80;;;;;;;16.02;52.52;99880.72;5067029;28;20054;-41
2021/12/04 04:12:05;;;;;;;22.05;12.07;;;;;;;16.02;51.68;99878.88;5068990;28;20054;-41
2021/12/04 04:14:32;;;;;;;22.38;13.07;;;;;;;16.01;52.20;99873.69;5069763;28;20135;-43
2021/12/04 04:16:58;;;;;;;24.13;13.48;;;;;;;16.02;51.59;99875.38;5072930;28;20078;-42
2021/12/04 04:19:26;;;;;;;21.63;12.65;;;;;;;16.01;51.60;99879.03;5071904;28;20132;-42
2021/12/04 04:21:58;;;;;;;19.30;12.00;;;;;;;15.98;52.34;99869.50;5070019;28;20142;-44
2021/12/04 04:24:27;;;;;;;18.88;11.52;;;;;;;15.99;52.40;99876.50;5068782;28;20095;-42
2021/12/04 04:26:55;;;;;;;19.27;11.65;;;;;;;16.01;52.32;99879.03;5069406;28;20136;-43
2021/12/04 04:29:22;;;;;;;19.63;11.95;;;;;;;15.99;52.26;99868.50;5068801;28;20491;-42
2021/12/04 04:31:49;;;;;;;19.80;11.25;;;;;;;15.99;52.15;99860.47;5063984;28;20431;-42
2021/12/04 04:34:24;;;;;;;20.38;11.35;;;;;;;15.98;52.76;99861.50;5068692;28;20080;-43
2021/12/04 04:37:06;;;;;;;18.73;11.52;;;;;;;15.98;52.43;99857.97;5067140;28;20040;-42
2021/12/04 05:12:25;;;;;;;18.98;11.32;;;;;;;15.94;52.54;99832.59;5065923;28;20047;-42
2021/12/04 05:15:00;;;;;;;17.02;10.55;;;;;;;15.92;51.81;99827.44;5065257;28;20527;-42
2021/12/04 05:17:41;;;;;;;17.40;10.32;;;;;;;15.93;52.93;99830.94;5063978;28;20542;-41
2021/12/04 05:20:13;;;;;;;16.02;9.32;;;;;;;15.93;51.78;99828.25;5065792;28;20076;-40
2021/12/04 05:22:40;;;;;;;15.20;9.35;;;;;;;15.91;52.23;99823.06;5067681;28;20144;-40
2021/12/04 05:25:08;;;;;;;17.30;9.23;;;;;;;15.92;52.52;99832.75;5069056;28;20168;-41
2021/12/04 05:27:35;;;;;;;14.43;9.05;;;;;;;15.93;52.13;99830.94;5065681;28;20053;-43
2021/12/04 05:30:04;;;;;;;16.92;9.63;;;;;;;15.92;53.24;99830.09;5066097;28;20505;-41
2021/12/04 05:32:31;;;;;;;15.30;8.38;;;;;;;15.93;53.31;99826.41;5061461;28;20048;-41
2021/12/04 05:34:58;;;;;;;20.55;8.98;;;;;;;15.92;52.84;99826.56;5065048;28;20041;-45
2021/12/04 05:37:24;;;;;;;15.88;9.43;;;;;;;15.91;52.35;99822.22;5066044;28;20131;-41
2021/12/04 05:39:51;;;;;;;16.58;9.18;;;;;;;15.91;52.51;99815.03;5067617;28;20131;-41
2021/12/04 05:42:17;;;;;;;14.55;9.18;;;;;;;15.91;52.13;99809.69;5063329;28;20055;-41
2021/12/04 05:44:45;;;;;;;15.70;9.93;;;;;;;15.91;51.80;99812.38;5069558;28;20169;-41
2021/12/04 05:47:23;;;;;;;16.50;10.15;;;;;;;15.90;51.90;99805.34;5063010;28;20044;-41
2021/12/04 05:52:24;;;;;;;17.42;10.73;;;;;;;15.92;51.96;99802.50;5064754;28;20044;-41
2021/12/04 05:55:10;;;;;;;18.63;11.23;;;;;;;15.90;52.15;99805.34;5062785;28;20040;-41
2021/12/04 05:57:37;;;;;;;15.35;10.02;;;;;;;15.90;52.02;99808.03;5064512;28;20059;-42
2021/12/04 06:00:10;;;;;;;18.63;11.18;;;;;;;15.90;52.50;99809.88;5067343;28;20384;-40
2021/12/04 06:02:37;;;;;;;18.17;10.53;;;;;;;15.89;51.75;99808.22;5065488;28;20048;-43
2021/12/04 06:05:04;;;;;;;20.75;11.63;;;;;;;15.87;52.20;99808.34;5065825;28;20044;-40
2021/12/04 06:07:30;;;;;;;21.40;12.38;;;;;;;15.88;52.42;99809.19;5065555;28;20127;-40
2021/12/04 06:09:57;;;;;;;18.58;11.00;;;;;;;15.86;52.19;99801.34;5064873;28;20463;-41
2021/12/04 06:12:23;;;;;;;20.05;12.35;;;;;;;15.87;52.20;99811.03;5064522;28;20098;-41
2021/12/04 06:14:50;;;;;;;20.60;11.80;;;;;;;15.87;51.94;99805.69;5063929;28;22467;-40
2021/12/04 06:17:19;;;;;;;22.42;12.50;;;;;;;15.86;52.33;99800.50;5065224;28;20440;-41
2021/12/04 06:22:38;;;;;;;21.75;12.00;;;;;;;15.86;52.90;99797.84;5064100;28;20080;-40
2021/12/04 06:25:10;;;;;;;20.67;12.10;;;;;;;15.85;52.31;99804.19;5062164;28;20056;-40
2021/12/04 06:27:37;;;;;;;21.75;13.15;;;;;;;15.83;51.91;99801.66;5066377;28;20045;-40
2021/12/04 06:30:06;;;;;;;21.70;12.43;;;;;;;15.84;51.99;99795.34;5061429;28;20515;-40
2021/12/04 06:32:36;;;;;;;24.40;13.45;;;;;;;15.84;52.62;99791.81;5061354;28;20128;-40
2021/12/04 06:35:05;;;;;;;22.27;13.43;;;;;;;15.83;52.72;99795.50;5062704;28;20135;-40
2021/12/04 06:37:32;;;;;;;23.50;13.73;;;;;;;15.84;52.58;99794.47;5065661;28;20047;-42
2021/12/04 06:39:58;;;;;;;26.08;15.10;;;;;;;15.84;52.44;99794.47;5067020;28;20127;-43
2021/12/04 06:42:25;;;;;;;20.98;13.55;;;;;;;15.84;52.62;99794.47;5064929;28;20083;-42
2021/12/04 06:44:55;;;;;;;26.55;14.80;;;;;;;15.83;52.49;99784.81;5065455;28;20426;-42
2021/12/04 06:47:22;;;;;;;26.58;15.15;;;;;;;15.83;51.56;99779.47;5064447;28;20076;-42
2021/12/04 06:49:52;;;;;;;29.05;16.92;;;;;;;15.82;52.42;99773.28;5064245;28;20164;-43
2021/12/04 06:52:23;;;;;;;26.05;14.52;;;;;;;15.82;51.58;99780.47;5062781;28;20427;-43
2021/12/04 06:54:58;;;;;;;26.30;15.88;;;;;;;15.81;52.52;99782.31;5063222;28;20048;-42
2021/12/04 06:57:25;;;;;;;27.73;16.45;;;;;;;15.80;52.66;99783.31;5061104;28;20098;-42
2021/12/04 06:59:54;;;;;;;27.83;16.58;;;;;;;15.80;52.48;99791.34;5062558;28;20058;-43
2021/12/04 07:02:21;;;;;;;27.83;16.35;;;;;;;15.81;52.67;99800.19;5062434;28;20083;-42
2021/12/04 07:04:47;;;;;;;29.05;16.80;;;;;;;15.79;52.20;99790.47;5063698;28;20135;-41
2021/12/04 07:07:14;;;;;;;28.10;16.95;;;;;;;15.78;51.91;99790.66;5059696;28;20123;-40
2021/12/04 07:09:42;;;;;;;30.83;17.23;;;;;;;15.79;51.91;99800.31;5067755;28;20075;-41
2021/12/04 07:12:10;;;;;;;28.88;16.88;;;;;;;15.79;51.64;99805.66;5060050;28;20083;-41
2021/12/04 07:14:37;;;;;;;27.67;16.35;;;;;;;15.78;52.32;99804.84;5065203;28;20061;-41
2021/12/04 07:17:05;;;;;;;29.83;17.20;;;;;;;15.77;51.80;99800.50;5063315;28;20282;-40
2021/12/04 07:19:32;;;;;;;28.13;16.35;;;;;;;15.78;51.72;99796.00;5061299;28;20079;-40
2021/12/04 07:21:59;;;;;;;30.08;17.90;;;;;;;15.77;52.68;99805.84;5059235;28;20047;-41
2021/12/04 07:24:26;;;;;;;29.67;16.42;;;;;;;15.76;52.53;99795.34;5063714;28;20105;-41
2021/12/04 07:26:53;;;;;;;32.97;18.75;;;;;;;15.76;52.52;99792.66;5061966;28;20074;-41
2021/12/04 07:29:20;;;;;;;31.27;17.77;;;;;;;15.75;52.52;99786.47;5062119;28;20044;-41
2021/12/04 07:31:46;;;;;;;31.63;19.02;;;;;;;15.74;52.35;99787.47;5061371;28;20045;-41
2021/12/04 07:34:13;;;;;;;31.38;17.85;;;;;;;15.75;52.66;99772.28;5062751;28;20151;-41
2021/12/04 07:36:40;;;;;;;31.17;18.60;;;;;;;15.74;51.94;99771.44;5063869;28;20124;-41
2021/12/04 07:39:06;;;;;;;34.88;19.60;;;;;;;15.74;51.84;99774.09;5062390;28;20135;-41
2021/12/04 07:41:38;;;;;;;32.95;18.85;;;;;;;15.74;52.59;99779.44;5062206;28;20136;-41
2021/12/04 07:44:08;;;;;;;32.33;19.55;;;;;;;15.73;52.07;99772.44;5060118;28;20126;-41
2021/12/04 07:46:40;;;;;;;33.92;19.60;;;;;;;15.73;52.04;99774.28;5065005;28;20041;-41
2021/12/04 07:49:07;;;;;;;34.40;19.02;;;;;;;15.73;52.45;99775.13;5062466;28;20052;-41
2021/12/04 07:51:33;;;;;;;35.17;19.30;;;;;;;15.72;51.75;99772.63;5067546;28;20347;-41
2021/12/04 07:54:00;;;;;;;32.75;19.75;;;;;;;15.73;52.66;99775.13;5063091;28;20087;-41
2021/12/04 07:56:27;;;;;;;38.58;20.58;;;;;;;15.72;52.48;99778.78;5066640;28;20051;-41
2021/12/04 07:58:54;;;;;;;34.17;20.33;;;;;;;15.72;52.11;99777.97;5059519;28;20059;-41
2021/12/04 08:01:21;;;;;;;31.65;19.27;;;;;;;15.71;52.08;99779.78;5062850;28;20840;-41
2021/12/04 08:03:48;;;;;;;33.20;18.90;;;;;;;15.69;51.74;99768.44;5059602;28;20052;-41
2021/12/04 08:06:15;;;;;;;35.13;19.25;;;;;;;15.71;51.48;99765.59;5061685;28;20047;-41
2021/12/04 08:08:41;;;;;;;30.48;18.98;;;;;;;15.69;51.71;99752.41;5060361;28;20448;-41
2021/12/04 08:11:08;;;;;;;33.35;19.55;;;;;;;15.69;52.63;99752.41;5066006;28;20056;-41
2021/12/04 08:13:34;;;;;;;33.20;19.42;;;;;;;15.70;52.43;99753.22;5060690;28;20123;-41
2021/12/04 08:16:01;;;;;;;34.60;19.95;;;;;;;15.70;52.38;99739.88;5064914;28;20045;-42
2021/12/04 08:18:28;;;;;;;33.75;19.40;;;;;;;15.70;52.83;99727.34;5062302;28;20098;-42
2021/12/04 08:20:56;;;;;;;33.33;20.08;;;;;;;15.70;51.95;99721.19;5064154;28;20045;-42
2021/12/04 08:23:22;;;;;;;31.05;18.38;;;;;;;15.68;52.69;99721.34;5062311;28;20388;-41
2021/12/04 08:25:49;;;;;;;34.38;19.50;;;;;;;15.68;52.60;99718.69;5061938;28;20102;-44
2021/12/04 08:28:15;;;;;;;31.73;18.83;;;;;;;15.68;52.06;99721.34;5064106;28;20063;-41
2021/12/04 08:30:42;;;;;;;31.25;18.67;;;;;;;15.67;52.20;99717.00;5062231;28;20515;-40
2021/12/04 08:33:11;;;;;;;34.58;19.60;;;;;;;15.67;52.30;99714.31;5063923;28;20052;-45
2021/12/04 08:35:41;;;;;;;34.92;20.08;;;;;;;15.67;52.14;99710.81;5061762;28;20153;-42
2021/12/04 08:38:11;;;;;;;32.63;19.88;;;;;;;15.67;51.47;99716.16;5063880;28;20053;-42
2021/12/04 08:40:39;;;;;;;36.05;20.80;;;;;;;15.66;51.57;99726.00;5062336;28;20049;-41
2021/12/04 08:43:07;;;;;;;36.10;20.90;;;;;;;15.66;52.32;99736.69;5065590;28;20067;-41
2021/12/04 08:45:34;;;;;;;39.45;21.38;;;;;;;15.65;51.90;99727.03;5062506;28;20037;-40
2021/12/04 08:48:00;;;;;;;40.05;22.02;;;;;;;15.65;51.81;99734.22;5068609;28;20141;-41
2021/12/04 08:50:30;;;;;;;40.42;23.30;;;;;;;15.66;51.67;99733.19;5068352;28;20055;-40
2021/12/04 08:52:58;;;;;;;41.33;23.92;;;;;;;15.64;51.96;99736.00;5068301;28;20135;-40
2021/12/04 08:55:26;;;;;;;41.40;24.15;;;;;;;15.64;52.26;99733.34;5065873;28;20088;-40
2021/12/04 08:57:53;;;;;;;46.03;25.83;;;;;;;15.65;52.25;99742.22;5069457;28;20136;-40
2021/12/04 09:00:29;;;;;;;47.95;27.30;;;;;;;15.63;51.89;99745.00;5065775;28;20124;-40
2021/12/04 09:02:56;;;;;;;46.20;26.70;;;;;;;15.64;52.22;99733.34;5070951;28;20044;-40
2021/12/04 09:05:24;;;;;;;45.15;26.15;;;;;;;15.63;51.45;99726.31;5064215;28;20450;-40
2021/12/04 09:07:52;;;;;;;46.70;26.35;;;;;;;15.63;51.95;99723.63;5068222;28;20375;-41
2021/12/04 09:10:19;;;;;;;47.45;26.45;;;;;;;15.62;51.75;99721.97;5065476;28;20053;-40
2021/12/04 09:12:47;;;;;;;49.72;27.08;;;;;;;15.62;50.90;99713.13;5067782;28;20063;-41
2021/12/04 09:15:17;;;;;;;51.65;28.15;;;;;;;15.61;51.72;99706.97;5066329;28;20123;-40
2021/12/04 09:17:43;;;;;;;45.17;26.50;;;;;;;15.61;51.23;99717.63;5070706;28;20044;-40
2021/12/04 09:20:12;;;;;;;51.50;28.35;;;;;;;15.61;52.35;99724.81;5068454;28;20165;-41
2021/12/04 09:22:39;;;;;;;48.80;28.73;;;;;;;15.61;52.24;99711.47;5058952;28;20052;-40
2021/12/04 09:25:13;;;;;;;51.28;28.67;;;;;;;15.61;52.39;99708.78;5062475;28;20079;-40
2021/12/04 09:28:03;;;;;;;;;;;;;;;15.60;52.33;99702.63;5059484;28;20054;-40
2021/12/04 09:30:57;;;;;;;49.58;27.30;;;;;;;15.63;52.25;99701.44;5062652;28;20007;-40
2021/12/04 10:11:38;;;;;;;56.85;30.65;;;;;;;15.59;51.73;99658.19;5060801;28;20127;-40
2021/12/04 10:35:11;;;;;;;55.53;28.67;;;;;;;15.57;51.31;99633.50;5065763;28;20144;-40
2021/12/04 10:37:52;;;;;;;58.20;30.70;;;;;;;15.57;51.63;99613.97;5066407;28;20056;-43
2021/12/04 10:40:34;;;;;;;52.67;28.85;;;;;;;15.57;51.08;99612.16;5065522;28;20481;-41
2021/12/04 10:43:04;;;;;;;54.70;28.67;;;;;;;15.56;51.93;99597.13;5062883;28;20140;-42
2021/12/04 10:45:44;;;;;;;54.67;29.55;;;;;;;15.55;51.00;99611.47;5066546;28;20343;-40
2021/12/04 10:48:18;;;;;;;49.83;26.65;;;;;;;15.54;51.53;99610.63;5063498;28;20135;-40
2021/12/04 10:51:22;;;;;;;50.05;26.77;;;;;;;15.55;51.47;99609.63;5066166;28;20072;-41
2021/12/04 10:53:45;;;;;;;47.05;25.52;;;;;;;15.55;51.46;99609.63;5064887;28;20391;-40
2021/12/04 11:02:16;;;;;;;49.03;26.65;;;;;;;15.55;51.17;99614.13;5064800;28;20084;-42
2021/12/04 11:04:50;;;;;;;48.10;26.45;;;;;;;15.56;51.41;99607.81;5062691;28;20056;-40
2021/12/04 11:40:51;;;;;;;49.17;26.05;;;;;;;15.50;51.79;99566.56;5064975;28;20045;-42
2021/12/04 11:43:22;;;;;;;50.20;26.85;;;;;;;15.50;51.27;99571.91;5061983;28;20168;-41
2021/12/04 11:48:37;;;;;;;48.85;26.15;;;;;;;15.49;51.93;99567.59;5060836;28;20046;-41
2021/12/04 11:51:21;;;;;;;52.60;27.65;;;;;;;15.50;51.48;99563.91;5066482;28;20131;-41
2021/12/04 11:53:49;;;;;;;55.05;29.15;;;;;;;15.50;51.63;99560.41;5061725;28;20127;-41
2021/12/04 11:56:19;;;;;;;53.17;29.45;;;;;;;15.50;51.52;99557.72;5061036;28;20048;-42
2021/12/04 11:58:49;;;;;;;53.78;29.42;;;;;;;15.49;51.55;99551.56;5060889;28;20059;-41
2021/12/04 12:01:33;;;;;;;60.35;30.73;;;;;;;15.49;51.19;99548.06;5060215;28;20092;-41
2021/12/04 12:04:07;;;;;;;60.25;32.05;;;;;;;15.48;50.95;99547.22;5062007;28;20132;-41
2021/12/04 12:06:40;;;;;;;62.72;31.95;;;;;;;15.50;51.11;99544.38;5063964;28;20072;-41
2021/12/04 12:09:09;;;;;;;61.77;33.53;;;;;;;15.49;51.94;99543.56;5063377;28;20467;-41
2021/12/04 12:11:36;;;;;;;67.00;35.72;;;;;;;15.49;51.40;99537.38;5062194;28;20056;-41
2021/12/04 12:14:11;;;;;;;63.47;33.03;;;;;;;15.49;51.79;99526.69;5065442;28;20083;-41
2021/12/04 12:16:51;;;;;;;65.25;34.83;;;;;;;15.49;51.74;99521.34;5061145;28;20127;-41
2021/12/04 12:19:36;;;;;;;71.05;37.10;;;;;;;15.50;51.31;99520.34;5067933;28;20064;-41
2021/12/04 12:22:18;;;;;;;70.10;36.53;;;;;;;15.51;51.82;99519.34;5065332;28;20461;-41
2021/12/04 12:36:09;;;;;;;71.72;37.63;;;;;;;15.49;53.08;99508.00;5019928;28;20178;-40
2021/12/04 12:38:53;;;;;;;84.38;39.47;;;;;;;15.57;52.71;99515.16;5070845;28;20128;-41
2021/12/04 12:41:21;;;;;;;;;;;;;;;15.65;53.53;99512.50;5064430;28;20506;-41
2021/12/04 12:43:57;;;;;;;90.25;40.67;;;;;;;15.75;53.29;99505.97;5065898;28;20319;-41
2021/12/04 12:46:52;;;;;;;96.72;42.03;;;;;;;15.84;53.55;99493.44;5073214;28;20132;-41
2021/12/04 12:49:34;;;;;;;93.70;42.67;;;;;;;15.94;52.82;99494.03;5071985;28;20131;-40
2021/12/04 12:52:13;;;;;;;96.32;43.97;;;;;;;16.08;53.82;99499.66;5072884;28;20136;-43
2021/12/04 12:55:04;;;;;;;102.15;44.35;;;;;;;16.15;53.42;99509.50;5065440;28;20053;-41
2021/12/04 12:57:36;;;;;;;90.63;42.60;;;;;;;16.24;52.48;99508.47;5065309;28;20308;-41
2021/12/04 13:14:17;;;;;;;79.40;37.30;;;;;;;16.69;51.06;99492.66;5066064;28;20049;-42
2021/12/04 13:16:59;;;;;;;70.85;36.03;;;;;;;16.76;51.66;99489.13;5063819;28;20076;-41
2021/12/04 13:19:26;;;;;;;68.10;35.90;;;;;;;16.82;51.06;99482.22;5066223;28;20052;-42
2021/12/04 13:21:58;;;;;;;69.55;35.05;;;;;;;16.86;51.11;99482.69;5062408;28;20045;-42
2021/12/04 13:24:27;;;;;;;65.63;35.08;;;;;;;16.89;50.61;99482.34;5067584;28;20724;-41
2021/12/04 13:26:56;;;;;;;65.60;33.28;;;;;;;16.92;50.90;99484.63;5061147;28;20235;-41
2021/12/04 13:29:26;;;;;;;66.82;33.67;;;;;;;16.93;50.73;99489.00;5065719;28;20435;-41
2021/12/04 13:31:55;;;;;;;71.68;34.67;;;;;;;16.95;50.80;99486.97;5063275;28;20063;-41
2021/12/04 13:34:25;;;;;;;73.53;34.15;;;;;;;16.95;50.94;99481.59;5066771;28;20102;-41
2021/12/04 13:36:53;;;;;;;64.80;33.65;;;;;;;16.94;50.15;99483.47;5065094;28;20052;-41
2021/12/04 13:39:20;;;;;;;62.97;33.58;;;;;;;16.93;50.93;99478.28;5064177;28;20139;-41
2021/12/04 13:41:49;;;;;;;66.03;32.45;;;;;;;16.93;50.34;99480.97;5065501;28;20124;-40
2021/12/04 13:44:18;;;;;;;62.70;33.03;;;;;;;16.92;50.28;99479.28;5065621;28;20056;-41
2021/12/04 13:46:52;;;;;;;64.00;33.20;;;;;;;16.90;50.76;99484.81;5064849;28;20040;-41
2021/12/04 13:49:22;;;;;;;63.78;32.42;;;;;;;16.88;50.81;99481.47;5065002;28;20543;-41
2021/12/04 13:51:53;;;;;;;62.80;32.47;;;;;;;16.86;50.66;99478.16;5067787;28;20048;-42
2021/12/04 13:54:23;;;;;;;60.22;32.03;;;;;;;16.84;50.51;99487.38;5062430;28;20076;-42
2021/12/04 13:56:50;;;;;;;60.65;31.05;;;;;;;16.82;50.67;99481.38;5065245;28;20853;-41
2021/12/04 13:59:23;;;;;;;60.78;31.63;;;;;;;16.78;50.38;99481.75;5063549;28;20642;-41
2021/12/04 14:01:50;;;;;;;62.97;31.50;;;;;;;16.76;50.20;99480.25;5065152;28;20139;-42
2021/12/04 14:04:19;;;;;;;61.05;31.58;;;;;;;16.75;50.24;99484.75;5067236;28;20048;-42
2021/12/04 14:06:55;;;;;;;54.90;30.63;;;;;;;16.76;49.93;99485.59;5066293;28;20136;-40
2021/12/04 14:09:29;;;;;;;58.55;30.55;;;;;;;16.79;50.45;99487.91;5065328;28;20475;-40
2021/12/04 14:11:56;;;;;;;54.15;29.00;;;;;;;16.83;50.02;99493.75;5063826;28;20489;-41
2021/12/04 14:14:26;;;;;;;61.08;31.35;;;;;;;16.89;50.11;99495.72;5065358;28;20052;-40
2021/12/04 14:16:55;;;;;;;57.80;29.75;;;;;;;16.94;50.70;99494.16;5064639;28;20131;-40
2021/12/04 14:19:25;;;;;;;51.78;28.67;;;;;;;17.01;50.84;99491.63;5063271;28;20056;-41
2021/12/04 14:21:54;;;;;;;52.67;29.00;;;;;;;17.08;50.29;99497.06;5064772;28;20082;-41
2021/12/04 14:24:48;;;;;;;53.90;28.23;;;;;;;17.14;50.57;99499.84;5063990;28;20132;-41
2021/12/04 14:27:26;;;;;;;50.03;27.45;;;;;;;17.22;50.59;99499.78;5053333;28;20331;-41
2021/12/04 14:30:07;;;;;;;50.80;27.55;;;;;;;17.26;50.26;99501.09;5063958;28;20102;-41
2021/12/04 14:32:35;;;;;;;52.63;28.02;;;;;;;17.33;50.03;99503.88;5061787;28;20124;-40
2021/12/04 14:35:15;;;;;;;54.33;27.67;;;;;;;17.39;50.16;99507.66;5064762;28;20528;-40
2021/12/04 14:37:55;;;;;;;51.72;27.17;;;;;;;17.42;49.68;99502.78;5064032;28;20036;-41